createdAt,value
2023-03-19T00:02:17.484Z,93.10
2023-03-19T00:04:46.318Z,92.80
2023-03-19T00:07:17.018Z,92.70
2023-03-19T00:09:45.061Z,93.10
2023-03-19T00:12:13.356Z,93.40
2023-03-19T00:14:42.104Z,93.60
2023-03-19T00:17:10.210Z,93.40
2023-03-19T00:19:38.205Z,93.40
2023-03-19T00:22:06.686Z,93.80
2023-03-19T00:24:36.095Z,93.30
2023-03-19T00:27:04.663Z,93.10
2023-03-19T00:29:32.875Z,93.40
2023-03-19T00:32:01.345Z,93.40
2023-03-19T00:34:29.351Z,93.40
2023-03-19T00:36:57.403Z,93.30
2023-03-19T00:39:25.390Z,93.60
2023-03-19T00:41:54.820Z,93.20
2023-03-19T00:44:22.761Z,92.80
2023-03-19T00:46:50.754Z,93.50
2023-03-19T00:49:18.775Z,93.70
2023-03-19T00:51:47.133Z,93.40
2023-03-19T00:54:15.177Z,92.80
2023-03-19T00:56:43.146Z,93.10
2023-03-19T00:59:12.470Z,93.80
2023-03-19T01:01:40.441Z,93.90
2023-03-19T01:04:08.800Z,94.00
2023-03-19T01:06:36.916Z,94.10
2023-03-19T01:09:05.019Z,94.10
2023-03-19T01:11:33.067Z,94.00
2023-03-19T01:14:01.414Z,94.10
2023-03-19T01:16:30.792Z,93.90
2023-03-19T01:18:58.986Z,94.10
2023-03-19T01:21:27.378Z,94.30
2023-03-19T01:23:55.920Z,94.40
2023-03-19T01:26:24.000Z,94.40
2023-03-19T01:28:52.521Z,93.90
2023-03-19T01:31:22.017Z,93.60
2023-03-19T01:33:51.681Z,93.70
2023-03-19T01:36:19.681Z,93.70
2023-03-19T01:38:47.654Z,93.70
2023-03-19T01:41:16.120Z,94.10
2023-03-19T01:43:44.131Z,94.30
2023-03-19T01:46:21.105Z,94.20
2023-03-19T01:48:54.093Z,93.90
2023-03-19T01:51:26.993Z,93.70
2023-03-19T01:53:58.729Z,94.20
2023-03-19T01:56:30.672Z,94.20
2023-03-19T01:59:01.811Z,94.30
2023-03-19T02:01:32.319Z,94.70
2023-03-19T02:04:01.752Z,94.80
2023-03-19T02:06:31.006Z,94.80
2023-03-19T02:08:59.834Z,94.70
2023-03-19T02:11:28.220Z,94.30
2023-03-19T02:13:56.289Z,94.40
2023-03-19T02:16:24.438Z,94.50
2023-03-19T02:18:53.456Z,94.70
2023-03-19T02:21:23.229Z,94.40
2023-03-19T02:23:55.574Z,94.60
2023-03-19T02:26:28.773Z,94.60
2023-03-19T02:28:57.125Z,95.00
2023-03-19T02:31:25.721Z,95.10
2023-03-19T02:34:01.553Z,95.10
2023-03-19T02:36:34.004Z,95.00
2023-03-19T02:39:05.620Z,95.00
2023-03-19T02:41:37.424Z,95.10
2023-03-19T02:44:06.660Z,95.20
2023-03-19T02:46:34.665Z,95.10
2023-03-19T02:49:02.656Z,95.50
2023-03-19T02:51:30.698Z,95.70
2023-03-19T02:54:00.867Z,95.50
2023-03-19T02:56:28.985Z,95.40
2023-03-19T02:58:58.361Z,95.60
2023-03-19T03:01:26.383Z,95.70
2023-03-19T03:03:54.599Z,95.50
2023-03-19T03:06:22.593Z,95.60
2023-03-19T03:08:50.580Z,95.60
2023-03-19T03:11:18.632Z,95.50
2023-03-19T03:13:46.617Z,95.60
2023-03-19T03:16:15.960Z,95.50
2023-03-19T03:18:44.063Z,95.40
2023-03-19T03:21:11.999Z,95.30
2023-03-19T03:23:39.970Z,95.20
2023-03-19T03:26:08.264Z,95.00
2023-03-19T03:28:36.301Z,94.90
2023-03-19T03:31:04.363Z,95.00
2023-03-19T03:33:34.049Z,95.20
2023-03-19T03:36:02.002Z,95.60
2023-03-19T03:38:30.111Z,96.00
2023-03-19T03:40:58.131Z,96.10
2023-03-19T03:43:26.669Z,96.20
2023-03-19T03:45:54.870Z,95.70
2023-03-19T03:48:23.319Z,96.30
2023-03-19T03:50:52.757Z,96.30
2023-03-19T03:53:20.900Z,96.50
2023-03-19T03:55:48.896Z,96.70
2023-03-19T03:58:17.087Z,96.70
2023-03-19T04:00:46.191Z,96.70
2023-03-19T04:03:14.855Z,96.60
2023-03-19T04:05:42.979Z,96.50
2023-03-19T04:08:12.289Z,96.50
2023-03-19T04:10:42.339Z,96.10
2023-03-19T04:13:10.846Z,96.40
2023-03-19T04:15:39.538Z,96.70
2023-03-19T04:18:07.489Z,96.80
2023-03-19T04:20:35.998Z,96.90
2023-03-19T04:23:04.454Z,96.90
2023-03-19T04:25:34.061Z,96.70
2023-03-19T04:28:02.169Z,96.20
2023-03-19T04:30:30.330Z,96.10
2023-03-19T04:32:58.398Z,96.10
2023-03-19T04:35:26.601Z,96.20
2023-03-19T04:37:54.925Z,96.40
2023-03-19T04:40:23.064Z,96.30
2023-03-19T04:42:52.401Z,96.00
2023-03-19T04:45:20.456Z,95.80
2023-03-19T04:47:48.395Z,96.00
2023-03-19T04:50:16.502Z,96.50
2023-03-19T04:52:44.636Z,96.50
2023-03-19T04:55:13.210Z,96.70
2023-03-19T04:57:41.173Z,96.80
2023-03-19T05:00:12.248Z,96.80
2023-03-19T05:02:40.262Z,96.80
2023-03-19T05:05:08.751Z,96.70
2023-03-19T05:07:37.088Z,96.60
2023-03-19T05:10:05.558Z,96.90
2023-03-19T05:12:33.546Z,97.10
2023-03-19T05:15:01.830Z,97.20
2023-03-19T05:17:31.232Z,97.30
2023-03-19T05:19:59.230Z,97.20
2023-03-19T05:22:27.512Z,97.20
2023-03-19T05:24:55.550Z,97.20
2023-03-19T05:27:23.635Z,97.10
2023-03-19T05:29:51.627Z,97.10
2023-03-19T05:32:20.432Z,97.20
2023-03-19T05:34:49.786Z,97.20
2023-03-19T05:37:18.310Z,97.20
2023-03-19T05:39:46.548Z,97.10
2023-03-19T05:42:15.013Z,97.10
2023-03-19T05:44:43.140Z,97.20
2023-03-19T05:47:12.494Z,97.10
2023-03-19T05:49:40.533Z,97.10
2023-03-19T05:52:10.053Z,97.00
2023-03-19T05:54:38.015Z,97.10
2023-03-19T05:57:06.058Z,97.50
2023-03-19T05:59:34.082Z,97.50
2023-03-19T06:02:02.150Z,97.50
2023-03-19T06:04:30.132Z,97.70
2023-03-19T06:06:58.173Z,97.70
2023-03-19T06:09:27.570Z,97.60
2023-03-19T06:11:55.524Z,97.70
2023-03-19T06:14:23.642Z,97.90
2023-03-19T06:16:51.620Z,98.00
2023-03-19T06:19:19.643Z,98.20
2023-03-19T06:21:47.679Z,98.30
2023-03-19T06:24:15.715Z,98.50
2023-03-19T06:26:45.505Z,98.60
2023-03-19T06:29:13.436Z,98.50
2023-03-19T06:31:41.835Z,97.90
2023-03-19T06:34:10.141Z,98.20
2023-03-19T06:36:38.329Z,98.20
2023-03-19T06:39:06.292Z,98.20
2023-03-19T06:41:34.309Z,98.20
2023-03-19T06:44:04.237Z,98.40
2023-03-19T06:46:32.362Z,98.70
2023-03-19T06:49:00.403Z,98.60
2023-03-19T06:51:28.531Z,98.30
2023-03-19T06:53:56.691Z,98.00
2023-03-19T06:56:24.877Z,98.20
2023-03-19T06:58:53.111Z,97.70
2023-03-19T07:01:23.121Z,98.20
2023-03-19T07:03:51.266Z,98.30
2023-03-19T07:06:19.319Z,98.20
2023-03-19T07:08:47.271Z,98.20
2023-03-19T07:11:16.444Z,98.60
2023-03-19T07:13:44.474Z,97.80
2023-03-19T07:16:12.442Z,98.40
2023-03-19T07:18:41.930Z,98.70
2023-03-19T07:21:09.961Z,98.60
2023-03-19T07:23:37.981Z,98.60
2023-03-19T07:26:06.458Z,98.30
2023-03-19T07:28:34.565Z,98.10
2023-03-19T07:31:02.534Z,97.90
2023-03-19T07:33:30.614Z,97.80
2023-03-19T07:35:59.945Z,97.70
2023-03-19T07:38:28.058Z,97.60
2023-03-19T07:41:02.275Z,97.50
2023-03-19T07:43:31.514Z,97.40
2023-03-19T07:46:00.123Z,97.20
2023-03-19T07:48:28.328Z,97.20
2023-03-19T07:50:56.376Z,97.20
2023-03-19T07:53:26.233Z,97.60
2023-03-19T07:55:54.259Z,97.90
2023-03-19T07:58:22.306Z,98.60
2023-03-19T08:00:50.739Z,98.20
2023-03-19T08:03:18.705Z,98.60
2023-03-19T08:05:48.794Z,98.60
2023-03-19T08:08:17.278Z,98.20
2023-03-19T08:10:47.525Z,98.20
2023-03-19T08:13:15.541Z,98.40
2023-03-19T08:15:43.742Z,98.60
2023-03-19T08:18:11.871Z,98.30
2023-03-19T08:20:39.828Z,98.10
2023-03-19T08:23:07.820Z,98.00
2023-03-19T08:25:35.824Z,97.70
2023-03-19T08:28:05.355Z,97.40
2023-03-19T08:30:33.715Z,97.10
2023-03-19T08:33:01.978Z,96.90
2023-03-19T08:35:30.079Z,96.60
2023-03-19T08:37:58.264Z,96.40
2023-03-19T08:40:26.406Z,96.10
2023-03-19T08:42:56.032Z,95.90
2023-03-19T08:45:25.374Z,95.60
2023-03-19T08:47:53.341Z,95.50
2023-03-19T08:50:21.762Z,95.30
2023-03-19T08:52:49.776Z,94.90
2023-03-19T08:55:18.193Z,94.80
2023-03-19T08:57:46.332Z,94.90
2023-03-19T09:00:15.628Z,94.80
2023-03-19T09:02:44.999Z,94.50
2023-03-19T09:05:12.980Z,94.40
2023-03-19T09:07:40.937Z,94.30
2023-03-19T09:10:09.819Z,94.20
2023-03-19T09:12:37.813Z,94.20
2023-03-19T09:15:06.721Z,94.10
2023-03-19T09:17:34.830Z,94.00
2023-03-19T09:20:05.828Z,94.10
2023-03-19T09:22:33.970Z,94.00
2023-03-19T09:25:01.913Z,93.30
2023-03-19T09:27:29.966Z,93.00
2023-03-19T09:29:57.987Z,92.60
2023-03-19T09:32:26.000Z,92.50
2023-03-19T09:34:53.964Z,92.70
2023-03-19T09:37:23.342Z,92.50
2023-03-19T09:39:51.856Z,92.40
2023-03-19T09:42:43.320Z,92.70
2023-03-19T09:45:15.430Z,92.30
2023-03-19T09:47:45.474Z,91.70
2023-03-19T09:50:16.900Z,91.90
2023-03-19T09:52:48.466Z,91.70
2023-03-19T09:55:33.843Z,91.40
2023-03-19T09:58:02.746Z,91.50
2023-03-19T10:00:34.098Z,91.20
2023-03-19T10:03:07.799Z,91.20
2023-03-19T10:05:48.595Z,91.00
2023-03-19T10:08:34.245Z,91.30
2023-03-19T10:11:15.498Z,91.20
2023-03-19T10:13:54.273Z,91.10
2023-03-19T10:16:25.391Z,90.90
2023-03-19T10:18:57.176Z,91.00
2023-03-19T10:21:32.251Z,90.50
2023-03-19T10:24:06.639Z,90.40
2023-03-19T10:26:36.723Z,90.40
2023-03-19T10:29:09.323Z,90.20
2023-03-19T10:31:48.364Z,89.90
2023-03-19T10:34:33.317Z,89.90
2023-03-19T10:37:04.055Z,89.50
2023-03-19T10:39:38.820Z,88.90
2023-03-19T10:42:42.079Z,89.70
2023-03-19T10:45:21.395Z,89.00
2023-03-19T10:47:49.328Z,89.40
2023-03-19T10:50:19.370Z,88.70
2023-03-19T10:52:52.629Z,87.10
2023-03-19T10:55:26.522Z,87.00
2023-03-19T10:58:03.437Z,87.00
2023-03-19T11:00:35.360Z,87.20
2023-03-19T11:03:05.537Z,87.20
2023-03-19T11:05:35.933Z,86.90
2023-03-19T11:08:06.476Z,85.20
2023-03-19T11:10:37.656Z,85.30
2023-03-19T11:13:08.149Z,85.50
2023-03-19T11:15:38.745Z,84.60
2023-03-19T11:18:23.784Z,84.10
2023-03-19T11:20:58.266Z,84.00
2023-03-19T11:23:29.374Z,83.40
2023-03-19T11:26:01.874Z,83.10
2023-03-19T11:28:33.803Z,83.40
2023-03-19T11:31:08.843Z,83.40
2023-03-19T11:34:01.235Z,83.30
2023-03-19T11:36:34.720Z,83.30
2023-03-19T11:39:17.737Z,82.80
2023-03-19T11:42:03.946Z,83.00
2023-03-19T11:44:37.698Z,83.00
2023-03-19T11:47:26.499Z,83.00
2023-03-19T11:50:18.484Z,83.00
2023-03-19T11:53:02.028Z,82.70
2023-03-19T11:55:36.518Z,81.90
2023-03-19T11:58:30.549Z,81.70
2023-03-19T12:01:03.293Z,81.60
2023-03-19T12:04:19.623Z,81.30
2023-03-19T12:06:57.149Z,81.90
2023-03-19T12:09:31.513Z,81.30
2023-03-19T12:12:10.097Z,81.00
2023-03-19T12:14:51.545Z,80.80
2023-03-19T12:17:30.588Z,80.60
2023-03-19T12:20:18.592Z,80.70
2023-03-19T12:23:00.847Z,79.60
2023-03-19T12:25:57.171Z,80.10
2023-03-19T12:28:27.888Z,80.00
2023-03-19T12:31:20.646Z,79.50
2023-03-19T12:33:54.161Z,78.50
2023-03-19T12:36:27.484Z,78.00
2023-03-19T12:39:01.247Z,77.60
2023-03-19T12:41:31.500Z,77.40
2023-03-19T12:44:04.981Z,77.40
2023-03-19T12:46:38.728Z,77.70
2023-03-19T12:49:11.275Z,75.70
2023-03-19T12:51:42.003Z,77.40
2023-03-19T12:54:15.085Z,76.10
2023-03-19T12:56:48.847Z,75.90
2023-03-19T12:59:26.352Z,75.00
2023-03-19T13:02:02.908Z,74.40
2023-03-19T13:04:34.438Z,74.80
2023-03-19T13:07:06.735Z,75.10
2023-03-19T13:09:41.791Z,75.00
2023-03-19T13:12:14.049Z,75.00
2023-03-19T13:14:52.543Z,74.90
2023-03-19T13:17:31.093Z,73.80
2023-03-19T13:20:02.738Z,74.70
2023-03-19T13:22:35.815Z,72.90
2023-03-19T13:25:04.835Z,72.60
2023-03-19T13:27:34.598Z,72.40
2023-03-19T13:30:17.846Z,69.60
2023-03-19T13:32:50.114Z,69.80
2023-03-19T13:35:29.765Z,70.90
2023-03-19T13:38:01.330Z,71.00
2023-03-19T13:40:47.127Z,70.40
2023-03-19T13:43:41.672Z,69.80
2023-03-19T13:46:32.398Z,68.50
2023-03-19T13:49:25.229Z,68.60
2023-03-19T13:51:56.605Z,68.50
2023-03-19T13:54:41.097Z,68.50
2023-03-19T13:57:22.582Z,67.30
2023-03-19T13:59:51.947Z,67.50
2023-03-19T14:02:50.660Z,67.80
2023-03-19T14:05:22.835Z,66.30
2023-03-19T14:07:56.452Z,66.50
2023-03-19T14:10:27.905Z,66.30
2023-03-19T14:13:08.476Z,65.20
2023-03-19T14:15:40.071Z,65.00
2023-03-19T14:18:18.742Z,66.10
2023-03-19T14:20:59.231Z,66.40
2023-03-19T14:23:39.620Z,64.70
2023-03-19T14:26:18.486Z,65.50
2023-03-19T14:28:56.215Z,66.10
2023-03-19T14:31:34.336Z,65.50
2023-03-19T14:34:19.316Z,66.10
2023-03-19T14:36:53.867Z,66.30
2023-03-19T14:39:23.700Z,65.80
2023-03-19T14:41:56.885Z,66.50
2023-03-19T14:44:58.503Z,66.60
2023-03-19T14:48:05.750Z,67.00
2023-03-19T14:50:57.766Z,66.00
2023-03-19T14:53:36.097Z,65.60
2023-03-19T14:56:13.819Z,66.00
2023-03-19T14:58:52.635Z,66.50
2023-03-19T15:01:21.412Z,66.00
2023-03-19T15:03:55.756Z,65.90
2023-03-19T15:06:24.894Z,66.80
2023-03-19T15:08:54.338Z,66.90
2023-03-19T15:11:37.658Z,66.80
2023-03-19T15:14:18.552Z,67.30
2023-03-19T15:16:55.656Z,67.30
2023-03-19T15:19:27.126Z,67.50
2023-03-19T15:22:05.138Z,67.30
2023-03-19T15:24:36.211Z,66.70
2023-03-19T15:27:14.944Z,67.00
2023-03-19T15:29:42.881Z,67.50
2023-03-19T15:32:11.483Z,67.40
2023-03-19T15:34:42.238Z,67.00
2023-03-19T15:37:13.878Z,67.80
2023-03-19T15:39:47.699Z,68.00
2023-03-19T15:42:17.848Z,68.50
2023-03-19T15:44:50.308Z,67.60
2023-03-19T15:47:25.664Z,67.00
2023-03-19T15:49:57.161Z,67.60
2023-03-19T15:52:26.721Z,67.10
2023-03-19T15:54:56.921Z,68.60
2023-03-19T15:57:26.211Z,67.60
2023-03-19T15:59:56.703Z,68.10
2023-03-19T16:02:28.451Z,67.80
2023-03-19T16:05:20.440Z,68.20
2023-03-19T16:07:45.432Z,68.50
2023-03-19T16:10:36.518Z,68.70
2023-03-19T16:13:19.633Z,68.30
2023-03-19T16:15:49.655Z,68.10
2023-03-19T16:18:25.835Z,69.00
2023-03-19T16:21:07.067Z,68.80
2023-03-19T16:23:37.372Z,68.60
2023-03-19T16:26:18.093Z,68.70
2023-03-19T16:28:53.841Z,68.60
2023-03-19T16:31:24.440Z,68.70
2023-03-19T16:33:53.690Z,69.00
2023-03-19T16:36:22.684Z,69.00
2023-03-19T16:38:57.289Z,69.20
2023-03-19T16:41:32.370Z,69.00
2023-03-19T16:44:13.098Z,69.40
2023-03-19T16:46:41.650Z,69.60
2023-03-19T16:49:09.750Z,70.10
2023-03-19T16:51:38.912Z,70.10
2023-03-19T16:54:06.997Z,70.20
2023-03-19T16:56:36.514Z,70.90
2023-03-19T16:59:04.985Z,71.40
2023-03-19T17:01:33.002Z,71.60
2023-03-19T17:04:01.640Z,72.10
2023-03-19T17:06:34.366Z,72.10
2023-03-19T17:09:02.402Z,72.30
2023-03-19T17:11:36.903Z,72.40
2023-03-19T17:14:07.946Z,72.50
2023-03-19T17:16:36.074Z,72.80
2023-03-19T17:19:07.365Z,73.00
2023-03-19T17:21:35.938Z,73.80
2023-03-19T17:24:22.523Z,73.70
2023-03-19T17:26:50.730Z,74.10
2023-03-19T17:29:23.051Z,74.20
2023-03-19T17:31:51.997Z,74.20
2023-03-19T17:34:22.293Z,74.70
2023-03-19T17:36:52.223Z,74.90
2023-03-19T17:39:20.419Z,75.10
2023-03-19T17:41:48.477Z,75.10
2023-03-19T17:44:16.507Z,75.20
2023-03-19T17:46:49.918Z,75.70
2023-03-19T17:49:22.503Z,76.10
2023-03-19T17:51:51.620Z,76.20
2023-03-19T17:54:20.065Z,76.40
2023-03-19T17:56:48.161Z,76.20
2023-03-19T17:59:16.356Z,76.40
2023-03-19T18:01:47.221Z,76.20
2023-03-19T18:04:17.034Z,76.20
2023-03-19T18:06:47.256Z,76.50
2023-03-19T18:09:20.220Z,76.40
2023-03-19T18:11:48.377Z,76.60
2023-03-19T18:14:16.558Z,76.90
2023-03-19T18:16:46.485Z,77.20
2023-03-19T18:19:21.552Z,77.60
2023-03-19T18:21:49.648Z,77.60
2023-03-19T18:24:17.730Z,77.20
2023-03-19T18:26:45.874Z,77.10
2023-03-19T18:29:13.901Z,77.10
2023-03-19T18:31:44.850Z,78.00
2023-03-19T18:34:16.649Z,78.60
2023-03-19T18:36:44.747Z,78.80
2023-03-19T18:39:14.417Z,78.50
2023-03-19T18:41:42.795Z,78.70
2023-03-19T18:44:12.195Z,78.70
2023-03-19T18:46:41.545Z,78.60
2023-03-19T18:49:20.040Z,78.70
2023-03-19T18:52:01.126Z,79.00
2023-03-19T18:54:31.020Z,79.10
2023-03-19T18:57:00.130Z,79.20
2023-03-19T18:59:30.544Z,79.20
2023-03-19T19:02:01.706Z,79.30
2023-03-19T19:04:31.555Z,79.50
2023-03-19T19:06:59.930Z,80.10
2023-03-19T19:09:27.968Z,80.60
2023-03-19T19:12:00.750Z,80.80
2023-03-19T19:14:29.050Z,81.20
2023-03-19T19:16:57.235Z,81.90
2023-03-19T19:19:27.651Z,82.10
2023-03-19T19:21:57.044Z,82.70
2023-03-19T19:24:25.094Z,82.80
2023-03-19T19:26:54.172Z,83.30
2023-03-19T19:29:25.635Z,83.70
2023-03-19T19:31:54.545Z,84.10
2023-03-19T19:34:23.658Z,83.30
2023-03-19T19:36:52.513Z,84.00
2023-03-19T19:39:22.188Z,84.20
2023-03-19T19:41:57.346Z,84.40
2023-03-19T19:44:25.338Z,84.40
2023-03-19T19:46:54.618Z,84.70
2023-03-19T19:49:23.316Z,85.00
2023-03-19T19:51:51.270Z,85.10
2023-03-19T19:54:19.282Z,85.20
2023-03-19T19:56:48.753Z,85.20
2023-03-19T19:59:16.966Z,85.40
2023-03-19T20:01:45.049Z,85.60
2023-03-19T20:04:15.338Z,85.80
2023-03-19T20:06:43.396Z,86.10
2023-03-19T20:09:11.430Z,86.10
2023-03-19T20:11:39.827Z,86.60
2023-03-19T20:14:14.546Z,86.60
2023-03-19T20:16:42.561Z,86.60
2023-03-19T20:19:17.750Z,86.70
2023-03-19T20:21:45.966Z,87.20
2023-03-19T20:24:15.125Z,88.10
2023-03-19T20:26:44.226Z,88.60
2023-03-19T20:29:16.634Z,88.20
2023-03-19T20:31:46.708Z,87.70
2023-03-19T20:34:28.787Z,87.80
2023-03-19T20:37:04.284Z,88.20
2023-03-19T20:39:32.296Z,88.70
2023-03-19T20:42:00.628Z,89.40
2023-03-19T20:44:30.402Z,89.50
2023-03-19T20:46:59.061Z,89.50
2023-03-19T20:49:27.074Z,89.70
2023-03-19T20:51:55.287Z,90.00
2023-03-19T20:54:23.742Z,90.10
2023-03-19T20:56:52.888Z,90.20
2023-03-19T20:59:21.200Z,90.20
2023-03-19T21:01:52.698Z,90.00
2023-03-19T21:04:21.025Z,90.00
2023-03-19T21:06:53.331Z,90.10
2023-03-19T21:09:21.683Z,90.10
2023-03-19T21:11:49.787Z,90.00
2023-03-19T21:14:18.358Z,90.10
2023-03-19T21:16:46.349Z,90.30
2023-03-19T21:19:15.918Z,90.60
2023-03-19T21:21:44.107Z,90.70
2023-03-19T21:24:15.143Z,90.60
2023-03-19T21:26:44.803Z,90.30
2023-03-19T21:29:21.131Z,90.20
2023-03-19T21:31:49.264Z,90.50
2023-03-19T21:34:18.675Z,90.70
2023-03-19T21:36:46.696Z,90.50
2023-03-19T21:39:14.838Z,90.40
2023-03-19T21:41:43.057Z,90.50
2023-03-19T21:44:15.435Z,90.40
2023-03-19T21:46:46.626Z,90.40
2023-03-19T21:49:15.212Z,90.40
2023-03-19T21:51:44.807Z,90.50
2023-03-19T21:54:12.799Z,90.50
2023-03-19T21:56:42.608Z,90.50
2023-03-19T21:59:14.638Z,90.60
2023-03-19T22:01:42.934Z,90.50
2023-03-19T22:04:11.092Z,91.00
2023-03-19T22:06:39.954Z,91.30
2023-03-19T22:09:09.395Z,91.10
2023-03-19T22:11:39.884Z,90.90
2023-03-19T22:14:13.239Z,90.90
2023-03-19T22:16:42.414Z,91.00
2023-03-19T22:19:14.396Z,91.40
2023-03-19T22:21:42.653Z,91.50
2023-03-19T22:24:12.001Z,91.50
2023-03-19T22:26:41.752Z,91.80
2023-03-19T22:29:16.780Z,91.90
2023-03-19T22:31:45.051Z,91.80
2023-03-19T22:34:15.463Z,91.90
2023-03-19T22:36:43.674Z,92.00
2023-03-19T22:39:13.798Z,91.90
2023-03-19T22:41:45.568Z,91.60
2023-03-19T22:44:20.505Z,91.70
2023-03-19T22:46:48.560Z,91.80
2023-03-19T22:49:18.525Z,91.70
2023-03-19T22:51:47.463Z,91.80
2023-03-19T22:54:16.934Z,91.90
2023-03-19T22:56:44.982Z,91.80
2023-03-19T22:59:13.818Z,91.90
2023-03-19T23:01:44.234Z,92.20
2023-03-19T23:04:19.836Z,92.00
2023-03-19T23:06:47.959Z,92.10
2023-03-19T23:09:19.808Z,92.20
2023-03-19T23:11:49.441Z,92.20
2023-03-19T23:14:28.527Z,92.30
2023-03-19T23:16:59.949Z,92.40
2023-03-19T23:19:30.173Z,92.60
2023-03-19T23:21:59.258Z,92.80
2023-03-19T23:24:30.524Z,92.90
2023-03-19T23:27:00.591Z,92.90
2023-03-19T23:29:31.583Z,93.00
2023-03-19T23:31:59.722Z,93.50
2023-03-19T23:34:29.468Z,93.70
2023-03-19T23:36:58.015Z,93.70
2023-03-19T23:39:26.763Z,93.90
2023-03-19T23:41:59.166Z,94.20
2023-03-19T23:44:29.042Z,94.20
2023-03-19T23:47:01.059Z,94.10
2023-03-19T23:49:30.930Z,94.00
2023-03-19T23:51:59.322Z,94.00
2023-03-19T23:54:32.255Z,93.90
2023-03-19T23:57:05.157Z,93.60
2023-03-19T23:59:35.735Z,93.60
